Time;durP1;ratioP1;P1;durP2;ratioP2;P2;SDS_P1;SDS_P2;PMS_P1;PMS_P2;Temp;Humidity;BMP_temperature;BMP_pressure;BME280_temperature;BME280_humidity;BME280_pressure;Samples;Min_cycle;Max_cycle;Signal;HPM_P1;HPM_P2
2022/04/17 00:00:27;;;;;;;6.13;4.90;;;11.30;44.20;;;;;;5070585;28;20284;-85
2022/04/17 00:02:53;;;;;;;8.52;6.57;;;11.30;44.30;;;;;;5055287;28;20174;-85
2022/04/17 00:05:19;;;;;;;8.50;5.57;;;11.40;44.20;;;;;;5072784;28;20268;-85
2022/04/17 00:07:46;;;;;;;7.50;5.88;;;11.40;44.50;;;;;;5058717;28;20271;-85
2022/04/17 00:10:12;;;;;;;6.30;5.50;;;11.40;44.40;;;;;;5056374;28;20200;-85
2022/04/17 00:12:39;;;;;;;8.38;5.35;;;11.40;44.40;;;;;;5055961;28;20181;-85
2022/04/17 00:15:07;;;;;;;6.75;5.60;;;11.40;44.20;;;;;;5044549;28;20235;-85
2022/04/17 00:17:32;;;;;;;7.07;5.38;;;11.30;44.40;;;;;;5037023;28;20216;-85
2022/04/17 00:20:05;;;;;;;7.43;5.53;;;11.20;44.70;;;;;;5019658;28;20599;-85
2022/04/17 00:22:31;;;;;;;12.07;5.55;;;11.20;45.10;;;;;;5037071;28;20178;-84
2022/04/17 00:24:59;;;;;;;7.47;5.60;;;11.10;45.40;;;;;;5036416;28;20178;-86
2022/04/17 00:27:24;;;;;;;6.35;5.25;;;10.90;46.10;;;;;;5035817;28;20185;-85
2022/04/17 00:29:50;;;;;;;7.60;6.33;;;10.90;46.60;;;;;;5036586;28;20202;-85
2022/04/17 00:32:16;;;;;;;8.53;5.83;;;10.90;46.70;;;;;;5035320;28;20496;-85
2022/04/17 00:34:44;;;;;;;6.83;6.10;;;10.90;46.90;;;;;;5035617;28;20417;-85
2022/04/17 00:37:11;;;;;;;7.00;6.30;;;10.90;46.90;;;;;;5034770;28;20465;-85
2022/04/17 00:39:37;;;;;;;8.35;6.78;;;10.80;46.90;;;;;;5036153;28;20276;-85
2022/04/17 00:42:05;;;;;;;9.77;6.60;;;10.80;47.30;;;;;;5034935;28;20177;-85
2022/04/17 00:44:32;;;;;;;8.43;6.82;;;10.80;47.10;;;;;;5037472;28;20170;-85
2022/04/17 00:46:58;;;;;;;7.95;6.45;;;10.80;46.90;;;;;;5043050;28;20181;-85
2022/04/17 00:49:24;;;;;;;7.70;6.10;;;10.90;46.90;;;;;;5057797;28;20201;-85
2022/04/17 00:51:51;;;;;;;7.45;5.88;;;10.80;46.40;;;;;;5059381;28;20504;-85
2022/04/17 00:54:19;;;;;;;10.02;6.07;;;10.70;46.70;;;;;;5054738;28;20185;-85
2022/04/17 00:56:47;;;;;;;8.32;6.65;;;10.60;47.00;;;;;;5054414;28;20174;-85
2022/04/17 00:59:14;;;;;;;7.63;5.75;;;10.50;47.60;;;;;;5054419;28;20692;-85
2022/04/17 01:01:39;;;;;;;10.55;6.10;;;10.50;47.90;;;;;;5055304;28;20810;-86
2022/04/17 01:04:06;;;;;;;7.50;6.30;;;10.60;47.80;;;;;;5053760;28;20181;-85
2022/04/17 01:06:32;;;;;;;8.13;5.38;;;10.50;47.40;;;;;;5055294;28;20408;-85
2022/04/17 01:08:59;;;;;;;7.57;5.65;;;10.50;47.40;;;;;;5053980;28;20653;-85
2022/04/17 01:11:25;;;;;;;7.15;5.80;;;10.50;47.40;;;;;;5055980;28;20181;-85
2022/04/17 01:13:55;;;;;;;9.73;5.30;;;10.50;47.40;;;;;;5055762;28;20258;-85
2022/04/17 01:16:23;;;;;;;12.38;7.18;;;10.50;47.20;;;;;;5056960;28;20185;-85
2022/04/17 01:19:11;;;;;;;7.50;6.05;;;10.50;46.90;;;;;;5056513;28;20228;-85
2022/04/17 01:21:41;;;;;;;7.40;5.70;;;10.40;46.90;;;;;;5056971;28;20164;-86
2022/04/17 01:26:58;;;;;;;8.05;6.03;;;10.40;46.90;;;;;;5057134;28;20593;-86
2022/04/17 01:29:31;;;;;;;7.35;5.72;;;10.20;47.10;;;;;;5056601;28;20203;-85
2022/04/17 01:31:58;;;;;;;8.35;6.07;;;10.10;47.60;;;;;;5055822;28;20169;-85
2022/04/17 01:34:24;;;;;;;7.47;5.70;;;10.10;47.90;;;;;;5057530;28;20181;-85
2022/04/17 01:36:50;;;;;;;7.25;5.88;;;10.00;47.90;;;;;;5055639;28;20195;-86
2022/04/17 01:39:18;;;;;;;8.70;4.82;;;10.10;47.90;;;;;;5057112;28;20209;-85
2022/04/17 01:41:43;;;;;;;7.10;5.25;;;10.20;47.60;;;;;;5055080;28;20169;-86
2022/04/17 01:44:09;;;;;;;6.40;4.60;;;10.20;47.60;;;;;;5055670;28;20272;-85
2022/04/17 01:46:35;;;;;;;8.57;6.05;;;10.20;47.60;;;;;;5055936;28;20284;-86
2022/04/17 01:49:02;;;;;;;7.50;5.95;;;10.10;47.90;;;;;;5055682;28;20235;-85
2022/04/17 01:51:28;;;;;;;5.95;5.28;;;10.10;48.10;;;;;;5057846;28;20222;-85
2022/04/17 01:53:56;;;;;;;12.23;5.88;;;10.00;47.90;;;;;;5056777;28;20264;-85
2022/04/17 01:56:21;;;;;;;10.85;6.35;;;10.00;48.10;;;;;;5056046;28;20658;-87
2022/04/17 01:58:47;;;;;;;6.83;5.87;;;10.00;47.70;;;;;;5057318;28;20227;-86
2022/04/17 02:01:13;;;;;;;9.83;6.20;;;10.00;47.90;;;;;;5056710;28;20651;-85
2022/04/17 02:03:38;;;;;;;8.63;5.93;;;10.00;48.10;;;;;;5059182;28;20184;-85
2022/04/17 02:06:04;;;;;;;9.87;5.90;;;10.00;48.00;;;;;;5059735;28;20220;-85
2022/04/17 02:08:31;;;;;;;8.97;6.47;;;9.70;48.30;;;;;;5045758;28;20195;-85
2022/04/17 02:10:57;;;;;;;6.95;5.35;;;9.70;48.80;;;;;;5056585;28;20703;-85
2022/04/17 02:13:23;;;;;;;6.60;5.07;;;9.70;48.80;;;;;;5038887;28;20653;-84
2022/04/17 02:15:53;;;;;;;6.43;5.03;;;9.70;48.90;;;;;;5057674;28;20185;-85
2022/04/17 02:18:20;;;;;;;8.50;5.40;;;9.50;49.20;;;;;;5057005;28;20604;-86
2022/04/17 02:20:49;;;;;;;8.57;5.88;;;9.60;49.30;;;;;;5056887;28;20818;-85
2022/04/17 02:23:15;;;;;;;7.50;5.50;;;9.60;49.20;;;;;;5055760;28;20240;-85
2022/04/17 02:25:41;;;;;;;6.40;5.10;;;9.60;49.00;;;;;;5055981;28;20215;-86
2022/04/17 02:28:19;;;;;;;9.10;5.10;;;9.60;49.30;;;;;;5058113;28;20188;-85
2022/04/17 02:30:45;;;;;;;6.85;5.70;;;9.60;49.30;;;;;;5056882;28;20203;-85
2022/04/17 02:33:11;;;;;;;6.23;4.70;;;9.50;49.50;;;;;;5055536;28;20217;-87
2022/04/17 02:35:37;;;;;;;8.67;5.83;;;9.40;49.80;;;;;;5057649;28;20177;-85
2022/04/17 02:38:03;;;;;;;6.85;5.40;;;9.30;50.10;;;;;;5057693;28;20467;-85
2022/04/17 02:40:29;;;;;;;10.55;5.57;;;9.30;50.10;;;;;;5060494;28;20188;-85
2022/04/17 02:42:55;;;;;;;8.83;6.00;;;9.40;49.90;;;;;;5067251;28;20196;-85
2022/04/17 02:45:21;;;;;;;6.33;5.30;;;9.30;50.00;;;;;;5062293;28;20235;-85
2022/04/17 02:47:48;;;;;;;7.78;5.63;;;9.30;50.10;;;;;;5057669;28;20188;-85
2022/04/17 02:50:16;;;;;;;7.10;5.70;;;9.20;50.10;;;;;;5057759;28;20634;-85
2022/04/17 02:52:42;;;;;;;11.02;6.03;;;9.20;50.00;;;;;;5057668;28;20181;-85
2022/04/17 02:55:09;;;;;;;6.95;5.30;;;9.40;49.80;;;;;;5059768;28;20185;-85
2022/04/17 02:57:35;;;;;;;12.45;6.60;;;9.40;49.70;;;;;;5057538;28;20201;-85
2022/04/17 03:00:01;;;;;;;10.40;5.30;;;9.40;49.50;;;;;;5058021;28;20752;-85
2022/04/17 03:07:58;;;;;;;9.27;4.75;;;9.20;49.60;;;;;;5059837;28;20176;-85
2022/04/17 03:10:24;;;;;;;6.85;5.32;;;9.30;49.60;;;;;;5055492;28;20197;-85
2022/04/17 03:12:49;;;;;;;6.47;5.00;;;9.30;49.50;;;;;;5062541;28;20216;-83
2022/04/17 03:15:15;;;;;;;8.60;5.77;;;9.20;49.70;;;;;;5057160;28;20630;-84
2022/04/17 03:17:41;;;;;;;6.90;4.70;;;9.20;49.30;;;;;;5055575;28;20304;-84
2022/04/17 03:20:07;;;;;;;7.05;5.65;;;9.20;49.30;;;;;;5058729;28;20204;-86
2022/04/17 03:22:33;;;;;;;7.90;5.68;;;9.20;49.40;;;;;;5053034;28;20277;-83
2022/04/17 03:25:06;;;;;;;7.83;6.03;;;9.10;49.50;;;;;;5042520;28;20177;-83
2022/04/17 03:27:32;;;;;;;7.72;4.60;;;9.10;49.80;;;;;;5057969;28;20467;-83
2022/04/17 03:29:58;;;;;;;7.93;5.60;;;9.00;49.90;;;;;;5041596;28;20198;-84
2022/04/17 03:32:24;;;;;;;5.50;4.87;;;9.00;50.00;;;;;;5041955;28;20932;-84
2022/04/17 03:34:51;;;;;;;6.20;5.25;;;8.90;50.20;;;;;;5048989;28;20415;-85
2022/04/17 03:37:17;;;;;;;8.10;5.20;;;8.90;50.40;;;;;;5055049;28;20217;-84
2022/04/17 03:39:44;;;;;;;5.23;4.70;;;8.80;50.30;;;;;;5055547;28;20201;-83
2022/04/17 03:42:11;;;;;;;7.95;5.05;;;8.70;50.50;;;;;;5054761;28;20205;-84
2022/04/17 03:44:36;;;;;;;10.05;5.00;;;8.70;50.60;;;;;;5056372;28;20676;-84
2022/04/17 03:47:02;;;;;;;6.77;4.90;;;8.70;50.50;;;;;;5058836;28;20169;-84
2022/04/17 03:49:31;;;;;;;6.07;5.20;;;8.60;50.40;;;;;;5060077;28;20200;-84
2022/04/17 03:51:57;;;;;;;7.93;5.55;;;8.70;50.50;;;;;;5060458;28;20189;-84
2022/04/17 03:54:23;;;;;;;6.50;5.17;;;8.70;50.50;;;;;;5060109;28;20181;-83
2022/04/17 03:56:48;;;;;;;6.27;5.17;;;8.70;50.80;;;;;;5059236;28;20173;-85
2022/04/17 03:59:14;;;;;;;5.90;4.40;;;8.60;50.80;;;;;;5059656;28;20194;-85
2022/04/17 04:01:40;;;;;;;7.97;4.93;;;8.60;50.60;;;;;;5059064;28;20526;-85
2022/04/17 04:04:06;;;;;;;6.07;4.70;;;8.70;50.70;;;;;;5060590;28;20443;-85
2022/04/17 04:06:33;;;;;;;5.77;4.40;;;8.60;50.50;;;;;;5059012;28;20189;-84
2022/04/17 04:08:59;;;;;;;6.35;4.53;;;8.60;50.80;;;;;;5059083;28;20232;-84
2022/04/17 04:11:26;;;;;;;7.10;5.10;;;8.50;51.00;;;;;;5059228;28;20181;-84
2022/04/17 04:13:53;;;;;;;4.93;3.92;;;8.50;51.30;;;;;;5059142;28;20239;-84
2022/04/17 04:16:19;;;;;;;6.18;4.78;;;8.40;51.50;;;;;;5060921;28;20173;-85
2022/04/17 04:18:45;;;;;;;9.53;4.80;;;8.40;51.70;;;;;;5061014;28;20212;-86
2022/04/17 04:21:10;;;;;;;9.97;5.80;;;8.30;51.60;;;;;;5063073;28;20407;-85
2022/04/17 04:23:36;;;;;;;8.03;5.00;;;8.30;51.80;;;;;;5066811;28;20185;-84
2022/04/17 04:26:03;;;;;;;10.00;5.32;;;8.30;52.20;;;;;;5063785;28;20416;-84
2022/04/17 04:28:33;;;;;;;10.02;6.10;;;8.30;52.10;;;;;;5063884;28;20187;-84
2022/04/17 04:31:05;;;;;;;6.07;5.20;;;8.40;51.70;;;;;;5063565;28;20205;-84
2022/04/17 04:33:34;;;;;;;6.35;4.93;;;8.30;51.60;;;;;;5058814;28;20193;-85
2022/04/17 04:36:02;;;;;;;7.50;5.32;;;8.30;51.80;;;;;;5056566;28;20177;-85
2022/04/17 04:38:28;;;;;;;8.13;4.80;;;8.30;52.00;;;;;;5056188;28;20272;-84
2022/04/17 04:40:54;;;;;;;9.20;5.70;;;8.20;52.00;;;;;;5055862;28;20193;-85
2022/04/17 04:43:20;;;;;;;4.97;4.37;;;8.30;52.00;;;;;;5055141;28;20462;-85
2022/04/17 04:51:14;;;;;;;7.47;4.68;;;8.30;51.50;;;;;;5039018;28;20177;-85
2022/04/17 04:53:41;;;;;;;6.40;4.68;;;8.30;51.50;;;;;;5035258;28;20188;-85
2022/04/17 04:56:07;;;;;;;6.95;5.10;;;8.20;51.60;;;;;;5035317;28;20665;-85
2022/04/17 04:58:33;;;;;;;6.50;4.43;;;8.20;51.80;;;;;;5035580;28;20217;-85
2022/04/17 05:00:59;;;;;;;5.93;4.97;;;8.20;51.70;;;;;;5040296;28;20194;-85
2022/04/17 05:03:25;;;;;;;6.70;5.03;;;8.10;51.80;;;;;;5039991;28;20184;-84
2022/04/17 05:05:52;;;;;;;5.70;5.10;;;8.10;52.20;;;;;;5041346;28;20245;-84
2022/04/17 05:08:20;;;;;;;6.50;4.50;;;8.00;52.20;;;;;;5040364;28;20193;-85
2022/04/17 05:10:47;;;;;;;6.00;4.72;;;8.00;52.50;;;;;;5040268;28;20197;-85
2022/04/17 05:13:13;;;;;;;10.63;5.00;;;8.00;52.50;;;;;;5048223;28;20250;-85
2022/04/17 05:15:39;;;;;;;6.43;4.63;;;7.90;52.70;;;;;;5049513;28;20190;-85
2022/04/17 05:18:06;;;;;;;6.32;4.63;;;7.90;52.90;;;;;;5050119;28;20218;-84
2022/04/17 05:20:34;;;;;;;9.15;5.05;;;8.00;52.90;;;;;;5049032;28;20201;-83
2022/04/17 05:23:15;;;;;;;5.03;4.47;;;8.10;52.90;;;;;;5041631;28;20178;-83
2022/04/17 05:25:42;;;;;;;5.60;4.60;;;8.30;52.50;;;;;;5037057;28;20166;-85
2022/04/17 05:28:08;;;;;;;6.22;4.82;;;8.30;52.00;;;;;;5036138;28;20276;-84
2022/04/17 05:30:33;;;;;;;5.37;4.33;;;8.40;51.60;;;;;;5035424;28;20281;-84
2022/04/17 05:32:59;;;;;;;5.63;4.87;;;8.40;51.40;;;;;;5034540;28;20504;-85
2022/04/17 05:35:25;;;;;;;5.03;4.13;;;8.60;51.40;;;;;;5034451;28;20236;-83
2022/04/17 05:37:51;;;;;;;7.20;4.70;;;9.30;50.50;;;;;;5050561;28;20467;-83
2022/04/17 05:40:17;;;;;;;9.03;4.40;;;10.20;47.70;;;;;;5055276;28;20482;-84
2022/04/17 05:42:42;;;;;;;7.40;5.03;;;11.10;45.80;;;;;;5052558;28;20416;-85
2022/04/17 05:45:09;;;;;;;6.43;4.73;;;12.00;43.50;;;;;;5054488;28;20670;-87
2022/04/17 05:47:35;;;;;;;5.97;4.70;;;12.70;41.10;;;;;;5040946;28;20490;-84
2022/04/17 05:50:01;;;;;;;7.63;4.37;;;13.90;38.60;;;;;;5032723;28;20690;-84
2022/04/17 05:52:28;;;;;;;6.25;4.57;;;14.60;36.60;;;;;;5032595;28;20436;-85
2022/04/17 05:54:54;;;;;;;9.32;6.50;;;15.30;34.60;;;;;;5034114;28;20182;-85
2022/04/17 05:57:19;;;;;;;5.07;4.53;;;15.70;33.10;;;;;;5034963;28;20319;-85
2022/04/17 05:59:46;;;;;;;7.30;4.50;;;16.30;32.20;;;;;;5042712;28;20439;-85
2022/04/17 06:02:15;;;;;;;6.95;4.65;;;16.60;30.80;;;;;;5053666;28;20176;-85
2022/04/17 06:04:42;;;;;;;4.65;4.10;;;17.20;30.20;;;;;;5052940;28;20217;-85
2022/04/17 06:07:09;;;;;;;5.18;4.35;;;17.60;30.00;;;;;;5052834;28;20177;-85
2022/04/17 06:09:35;;;;;;;5.35;4.53;;;17.90;30.00;;;;;;5053309;28;20228;-85
2022/04/17 06:12:01;;;;;;;6.68;4.70;;;17.70;30.00;;;;;;5053269;28;20195;-85
2022/04/17 06:14:27;;;;;;;4.70;4.30;;;18.20;30.00;;;;;;5054715;28;20181;-88
2022/04/17 06:16:52;;;;;;;5.93;4.60;;;17.60;30.00;;;;;;5055618;28;20672;-85
2022/04/17 06:19:18;;;;;;;8.07;4.27;;;17.90;30.00;;;;;;5053733;28;20431;-85
2022/04/17 06:21:44;;;;;;;6.90;4.07;;;18.60;30.00;;;;;;5052560;28;20648;-85
2022/04/17 06:24:10;;;;;;;4.03;3.53;;;18.40;30.00;;;;;;5053048;28;20197;-85
2022/04/17 06:26:37;;;;;;;5.00;4.60;;;18.70;30.00;;;;;;5053254;28;20181;-85
2022/04/17 06:29:08;;;;;;;4.57;4.17;;;19.00;30.00;;;;;;5057143;28;20516;-85
2022/04/17 06:31:34;;;;;;;4.53;3.70;;;18.90;30.00;;;;;;5053280;28;20937;-85
2022/04/17 06:34:01;;;;;;;5.10;3.87;;;19.40;30.00;;;;;;5054837;28;20919;-88
2022/04/17 06:36:27;;;;;;;5.93;3.63;;;19.80;29.90;;;;;;5052649;28;20558;-86
2022/04/17 06:38:52;;;;;;;7.53;5.10;;;20.00;29.90;;;;;;5039827;28;20999;-85
2022/04/17 06:41:18;;;;;;;6.13;4.20;;;19.10;29.90;;;;;;5040879;28;20432;-85
2022/04/17 06:43:44;;;;;;;6.07;3.87;;;18.50;30.00;;;;;;5018246;28;20182;-85
2022/04/17 06:46:10;;;;;;;4.90;4.50;;;18.40;30.00;;;;;;5034656;28;20178;-87
2022/04/17 06:48:36;;;;;;;5.10;4.50;;;19.20;30.00;;;;;;5052763;28;20182;-85
2022/04/17 06:51:01;;;;;;;3.80;3.40;;;19.40;30.00;;;;;;5057116;28;20201;-85
2022/04/17 06:53:27;;;;;;;4.57;4.10;;;20.00;29.90;;;;;;5054779;28;20434;-85
2022/04/17 06:55:53;;;;;;;4.60;4.20;;;19.20;29.90;;;;;;5038395;28;20691;-86
2022/04/17 06:58:20;;;;;;;4.07;3.67;;;18.70;30.00;;;;;;5034484;28;20213;-85
2022/04/17 07:00:46;;;;;;;4.43;4.03;;;17.90;30.00;;;;;;5035182;28;20540;-86
2022/04/17 07:03:14;;;;;;;4.97;3.70;;;16.90;30.00;;;;;;5033709;28;20186;-86
2022/04/17 07:05:41;;;;;;;5.40;4.45;;;15.80;30.00;;;;;;5032315;28;20249;-86
2022/04/17 07:08:07;;;;;;;3.60;3.30;;;15.00;31.00;;;;;;5032312;28;20435;-86
2022/04/17 07:10:38;;;;;;;4.97;4.47;;;14.60;31.20;;;;;;5034210;28;20202;-86
2022/04/17 07:13:11;;;;;;;4.20;3.80;;;14.40;32.30;;;;;;5032536;28;20193;-85
2022/04/17 07:15:36;;;;;;;6.03;5.47;;;14.10;33.40;;;;;;5050591;28;20184;-85
2022/04/17 07:18:05;;;;;;;4.87;4.40;;;13.80;34.40;;;;;;5033869;28;20245;-86
2022/04/17 07:20:31;;;;;;;5.00;4.50;;;13.50;35.10;;;;;;5044691;28;20209;-84
2022/04/17 07:23:00;;;;;;;5.40;4.80;;;13.10;35.00;;;;;;5040434;28;20276;-85
2022/04/17 07:25:26;;;;;;;4.68;4.28;;;12.40;36.10;;;;;;5039114;28;20642;-86
2022/04/17 07:27:53;;;;;;;4.70;4.30;;;11.90;38.20;;;;;;5037789;28;20552;-86
2022/04/17 07:30:20;;;;;;;5.22;4.72;;;11.60;38.80;;;;;;5040428;28;20194;-86
2022/04/17 07:32:54;;;;;;;6.30;4.40;;;11.40;39.50;;;;;;5037177;28;20218;-87
2022/04/17 07:35:21;;;;;;;4.82;4.00;;;11.40;40.30;;;;;;5037821;28;20219;-86
2022/04/17 07:37:49;;;;;;;7.65;5.03;;;11.40;41.00;;;;;;5054283;28;20578;-86
2022/04/17 07:40:21;;;;;;;5.82;4.45;;;11.50;41.40;;;;;;5058766;28;20233;-87
2022/04/17 07:42:47;;;;;;;4.82;4.30;;;11.50;41.30;;;;;;5038391;28;20184;-86
2022/04/17 07:45:15;;;;;;;5.40;3.50;;;11.60;41.30;;;;;;5039157;28;20174;-86
2022/04/17 07:47:42;;;;;;;8.95;5.22;;;11.60;41.20;;;;;;5048676;28;20177;-86
2022/04/17 07:50:09;;;;;;;6.97;4.35;;;11.60;41.50;;;;;;5037032;28;20681;-86
2022/04/17 07:52:36;;;;;;;4.50;4.10;;;11.70;41.40;;;;;;5046761;28;20189;-86
2022/04/17 07:55:03;;;;;;;6.43;4.55;;;11.90;41.10;;;;;;5060291;28;20268;-86
2022/04/17 07:57:52;;;;;;;4.47;3.35;;;12.10;40.80;;;;;;5062198;28;20209;-86
2022/04/17 08:00:19;;;;;;;4.43;3.40;;;12.10;41.50;;;;;;5056987;28;20204;-86
2022/04/17 08:02:50;;;;;;;4.60;4.20;;;12.30;41.10;;;;;;5057752;28;20169;-85
2022/04/17 08:05:16;;;;;;;4.70;2.85;;;12.40;40.40;;;;;;5056780;28;20219;-86
2022/04/17 08:07:42;;;;;;;3.83;3.45;;;12.50;40.50;;;;;;5057947;28;20323;-86
2022/04/17 08:10:08;;;;;;;4.10;2.90;;;12.60;37.80;;;;;;5059943;28;20217;-85
2022/04/17 08:12:34;;;;;;;7.50;4.25;;;12.60;38.00;;;;;;5058250;28;20488;-86
2022/04/17 08:15:00;;;;;;;3.50;3.17;;;12.60;38.50;;;;;;5058230;28;20181;-86
2022/04/17 08:17:26;;;;;;;4.38;3.10;;;12.80;38.30;;;;;;5057180;28;20590;-86
2022/04/17 08:19:52;;;;;;;9.10;3.47;;;12.80;37.50;;;;;;5057130;28;20193;-86
2022/04/17 08:22:18;;;;;;;6.07;3.65;;;12.80;37.20;;;;;;5055486;28;20184;-85
2022/04/17 08:24:44;;;;;;;6.57;4.17;;;12.80;37.90;;;;;;5057167;28;20178;-87
2022/04/17 08:27:11;;;;;;;6.40;3.42;;;12.80;38.80;;;;;;5058561;28;20617;-86
2022/04/17 08:29:36;;;;;;;4.35;3.95;;;12.90;39.60;;;;;;5058127;28;20189;-86
2022/04/17 08:32:02;;;;;;;4.63;3.60;;;13.00;39.00;;;;;;5067502;28;20368;-85
2022/04/17 08:34:28;;;;;;;5.18;3.35;;;13.10;37.20;;;;;;5073686;28;20185;-86
2022/04/17 08:36:54;;;;;;;3.83;3.43;;;12.90;37.00;;;;;;5072772;28;20221;-86
2022/04/17 08:39:20;;;;;;;3.25;2.95;;;13.00;38.10;;;;;;5070595;28;20201;-85
2022/04/17 08:41:47;;;;;;;4.53;3.80;;;13.00;37.90;;;;;;5061863;28;20181;-86
2022/04/17 08:44:13;;;;;;;3.38;3.08;;;13.20;38.30;;;;;;5053843;28;20186;-85
2022/04/17 08:46:41;;;;;;;5.15;4.47;;;13.20;38.00;;;;;;5029794;28;20186;-84
2022/04/17 08:49:10;;;;;;;4.07;3.67;;;13.20;36.80;;;;;;5053297;28;20201;-85
2022/04/17 08:51:38;;;;;;;4.53;4.13;;;13.20;37.30;;;;;;5058758;28;20184;-85
2022/04/17 08:54:08;;;;;;;7.53;4.88;;;13.30;37.90;;;;;;5056965;28;20330;-85
2022/04/17 08:56:36;;;;;;;4.22;3.90;;;13.40;37.50;;;;;;5049714;28;20186;-85
2022/04/17 08:59:02;;;;;;;4.68;3.90;;;13.40;37.70;;;;;;5038106;28;20217;-85
2022/04/17 09:01:29;;;;;;;3.97;3.57;;;13.40;37.90;;;;;;5038107;28;20521;-85
2022/04/17 09:03:54;;;;;;;5.75;3.95;;;13.30;37.20;;;;;;5038190;28;20416;-85
2022/04/17 09:06:21;;;;;;;6.20;4.40;;;13.30;38.20;;;;;;5041391;28;20178;-85
2022/04/17 09:09:06;;;;;;;4.30;3.58;;;13.40;37.70;;;;;;5040374;28;20291;-85
2022/04/17 09:11:34;;;;;;;4.20;3.78;;;13.50;36.90;;;;;;5023205;28;20236;-84
2022/04/17 09:14:05;;;;;;;5.22;4.20;;;13.50;37.00;;;;;;5038870;28;20174;-84
2022/04/17 09:16:35;;;;;;;5.10;4.18;;;13.50;36.70;;;;;;5039615;28;20333;-85
2022/04/17 09:19:13;;;;;;;4.57;3.65;;;13.50;36.60;;;;;;5037808;28;20229;-86
2022/04/17 09:21:39;;;;;;;7.50;3.75;;;13.50;37.20;;;;;;5035708;28;20162;-85
2022/04/17 09:24:21;;;;;;;5.15;4.60;;;13.50;37.20;;;;;;5035555;28;20181;-87
2022/04/17 09:26:58;;;;;;;4.40;4.07;;;13.70;37.70;;;;;;5036190;28;20696;-85
2022/04/17 09:29:26;;;;;;;4.07;3.60;;;13.80;37.50;;;;;;5035828;28;20228;-85
2022/04/17 09:32:01;;;;;;;5.13;4.00;;;13.90;36.50;;;;;;5034582;28;20182;-85
2022/04/17 09:34:40;;;;;;;4.47;3.58;;;13.90;36.50;;;;;;5034713;28;20197;-85
2022/04/17 09:37:14;;;;;;;4.60;3.85;;;13.90;37.10;;;;;;5035199;28;20678;-85
2022/04/17 09:39:40;;;;;;;6.05;4.88;;;14.10;36.80;;;;;;5034099;28;20776;-85
2022/04/17 09:42:07;;;;;;;4.88;4.25;;;14.20;36.90;;;;;;5034355;28;20308;-84
2022/04/17 09:44:47;;;;;;;4.80;4.15;;;14.20;36.40;;;;;;5033263;28;20181;-85
2022/04/17 09:47:24;;;;;;;4.93;4.43;;;14.20;36.40;;;;;;5035277;28;20165;-85
2022/04/17 09:49:51;;;;;;;4.95;4.15;;;14.20;35.90;;;;;;5034498;28;20194;-84
2022/04/17 09:52:18;;;;;;;4.65;3.80;;;14.20;37.20;;;;;;5033185;28;20190;-84
2022/04/17 09:54:44;;;;;;;4.85;4.10;;;14.30;36.00;;;;;;5033725;28;20320;-84
2022/04/17 09:57:12;;;;;;;4.25;3.85;;;14.40;36.60;;;;;;5033269;28;20174;-85
2022/04/17 09:59:39;;;;;;;5.07;4.55;;;14.60;36.60;;;;;;5033013;28;20201;-85
2022/04/17 10:02:06;;;;;;;4.47;4.07;;;14.80;35.80;;;;;;5034275;28;20259;-85
2022/04/17 10:04:34;;;;;;;14.80;4.55;;;14.80;34.30;;;;;;5034291;28;20565;-86
2022/04/17 10:07:02;;;;;;;3.70;3.40;;;14.80;35.30;;;;;;5033469;28;20275;-87
2022/04/17 10:09:28;;;;;;;4.43;4.03;;;15.10;36.00;;;;;;5016551;28;20275;-87
2022/04/17 10:11:56;;;;;;;4.47;4.03;;;15.20;35.20;;;;;;5032478;28;20626;-87
2022/04/17 10:14:23;;;;;;;4.78;3.78;;;15.00;34.60;;;;;;5034848;28;20220;-86
2022/04/17 10:16:55;;;;;;;5.93;4.85;;;14.80;34.50;;;;;;5033363;28;20651;-87
2022/04/17 10:19:24;;;;;;;4.45;4.07;;;14.70;34.90;;;;;;5039669;28;20243;-87
2022/04/17 10:21:50;;;;;;;4.85;4.13;;;14.60;34.90;;;;;;5052540;28;20546;-86
2022/04/17 10:24:20;;;;;;;4.38;3.70;;;14.80;35.00;;;;;;5052548;28;20598;-85
2022/04/17 10:26:48;;;;;;;5.70;3.75;;;15.00;33.50;;;;;;5054361;28;20714;-86
2022/04/17 10:29:36;;;;;;;4.20;3.70;;;15.00;33.40;;;;;;5052563;28;20266;-85
2022/04/17 10:32:04;;;;;;;6.32;4.53;;;15.10;34.00;;;;;;5053273;28;20177;-85
2022/04/17 10:35:04;;;;;;;5.00;4.50;;;15.20;31.90;;;;;;5037576;28;20189;-86
2022/04/17 10:37:44;;;;;;;7.40;4.30;;;15.30;34.70;;;;;;5033159;28;20256;-84
2022/04/17 10:40:11;;;;;;;5.63;4.45;;;15.50;33.10;;;;;;5034319;28;20247;-84
2022/04/17 10:43:04;;;;;;;9.48;3.50;;;15.50;32.80;;;;;;5033498;28;20658;-85
2022/04/17 10:45:31;;;;;;;3.47;3.17;;;15.70;33.50;;;;;;5033838;28;20200;-85
2022/04/17 10:48:05;;;;;;;4.10;3.70;;;15.80;34.30;;;;;;5032629;28;20182;-85
2022/04/17 10:50:42;;;;;;;3.35;3.05;;;15.90;30.60;;;;;;5032792;28;20201;-85
2022/04/17 10:53:29;;;;;;;4.60;3.55;;;15.90;32.90;;;;;;5047568;28;20275;-85
2022/04/17 10:56:09;;;;;;;5.15;4.20;;;16.00;31.20;;;;;;5058944;28;20794;-85
2022/04/17 10:58:40;;;;;;;7.07;4.28;;;16.00;31.40;;;;;;5063805;28;20231;-85
2022/04/17 11:01:08;;;;;;;4.10;3.70;;;16.10;31.40;;;;;;5068523;28;20672;-84
2022/04/17 11:03:35;;;;;;;5.55;4.07;;;16.20;33.50;;;;;;5063429;28;20188;-85
2022/04/17 11:06:32;;;;;;;5.70;3.45;;;16.30;31.90;;;;;;5065064;28;20563;-85
2022/04/17 11:09:08;;;;;;;5.38;3.75;;;16.20;30.80;;;;;;5058877;28;20195;-85
2022/04/17 11:11:35;;;;;;;5.40;4.10;;;16.30;31.50;;;;;;5056991;28;20199;-85
2022/04/17 11:14:11;;;;;;;6.43;4.47;;;16.50;31.20;;;;;;5056806;28;20818;-85
2022/04/17 11:16:59;;;;;;;4.13;3.70;;;16.50;30.00;;;;;;5057332;28;20222;-85
2022/04/17 11:19:27;;;;;;;5.00;3.85;;;16.60;30.00;;;;;;5055348;28;20280;-85
2022/04/17 11:21:56;;;;;;;4.38;3.92;;;16.60;30.00;;;;;;5055574;28;20184;-85
2022/04/17 11:24:55;;;;;;;3.92;3.53;;;16.70;30.00;;;;;;5056764;28;20223;-83
2022/04/17 11:27:38;;;;;;;3.95;3.45;;;16.60;30.00;;;;;;5057288;28;20256;-85
2022/04/17 11:30:05;;;;;;;4.82;4.43;;;16.70;30.00;;;;;;5056002;28;20270;-85
2022/04/17 11:32:31;;;;;;;6.28;4.78;;;16.70;30.00;;;;;;5039552;28;20181;-86
2022/04/17 11:35:00;;;;;;;6.23;4.00;;;16.80;30.00;;;;;;5056419;28;20187;-84
2022/04/17 11:37:30;;;;;;;6.00;5.15;;;16.80;30.00;;;;;;5056104;28;20578;-85
2022/04/17 11:40:06;;;;;;;6.03;5.50;;;16.80;30.00;;;;;;5056974;28;20201;-85
2022/04/17 11:42:49;;;;;;;8.20;5.72;;;16.80;30.00;;;;;;5057114;28;20169;-85
2022/04/17 11:45:20;;;;;;;7.70;4.80;;;16.80;30.00;;;;;;5053960;28;20172;-85
2022/04/17 11:47:47;;;;;;;6.30;4.70;;;16.80;30.00;;;;;;5057341;28;20199;-87
2022/04/17 11:50:29;;;;;;;8.30;4.22;;;16.90;30.00;;;;;;5065337;28;20205;-85
2022/04/17 11:53:14;;;;;;;7.93;5.57;;;17.00;30.00;;;;;;5065381;28;20179;-85
2022/04/17 11:55:47;;;;;;;5.22;4.72;;;17.00;30.00;;;;;;5063678;28;20181;-84
2022/04/17 11:58:24;;;;;;;4.93;4.40;;;17.10;30.00;;;;;;5061846;28;20216;-83
2022/04/17 12:01:05;;;;;;;5.80;4.53;;;17.20;30.00;;;;;;5059979;28;20197;-87
2022/04/17 12:03:43;;;;;;;8.13;4.15;;;17.30;30.00;;;;;;5056002;28;20237;-87
2022/04/17 12:06:10;;;;;;;4.50;3.72;;;17.40;30.00;;;;;;5039488;28;20180;-87
2022/04/17 12:08:37;;;;;;;5.05;4.55;;;17.60;30.00;;;;;;5058514;28;20574;-85
2022/04/17 12:11:07;;;;;;;4.60;4.20;;;17.70;30.00;;;;;;5064552;28;20205;-85
2022/04/17 12:13:34;;;;;;;4.85;4.13;;;17.70;30.00;;;;;;5065348;28;20188;-86
2022/04/17 12:16:02;;;;;;;5.30;4.80;;;17.70;30.00;;;;;;5060043;28;20756;-85
2022/04/17 12:18:30;;;;;;;4.00;3.70;;;17.80;30.00;;;;;;5059760;28;20205;-85
2022/04/17 12:21:02;;;;;;;5.07;3.92;;;17.90;30.00;;;;;;5060055;28;20193;-85
2022/04/17 12:23:29;;;;;;;11.32;8.35;;;18.00;30.00;;;;;;5058111;28;20584;-86
2022/04/17 12:25:56;;;;;;;6.32;4.30;;;18.10;30.00;;;;;;5055373;28;20177;-85
2022/04/17 12:28:23;;;;;;;4.70;4.30;;;18.00;30.00;;;;;;5055140;28;20177;-85
2022/04/17 12:30:49;;;;;;;5.57;3.90;;;17.90;30.00;;;;;;5041119;28;20228;-84
2022/04/17 12:33:22;;;;;;;4.87;4.10;;;18.00;30.00;;;;;;5058388;28;20243;-85
2022/04/17 12:36:03;;;;;;;5.75;4.10;;;18.10;30.00;;;;;;5054879;28;20415;-85
2022/04/17 12:38:29;;;;;;;3.65;3.35;;;18.10;30.00;;;;;;5056027;28;20295;-85
2022/04/17 12:40:57;;;;;;;4.60;3.15;;;18.10;30.00;;;;;;5055314;28;20189;-85
2022/04/17 12:43:28;;;;;;;5.10;4.22;;;18.20;30.00;;;;;;5053821;28;20565;-85
2022/04/17 12:46:00;;;;;;;4.13;3.72;;;18.20;30.00;;;;;;5054974;28;20215;-85
2022/04/17 12:48:34;;;;;;;4.10;3.70;;;18.20;30.00;;;;;;5055011;28;20212;-86
2022/04/17 12:51:03;;;;;;;4.20;3.53;;;18.30;30.00;;;;;;5054807;28;20692;-85
2022/04/17 12:53:40;;;;;;;4.32;3.80;;;18.30;30.00;;;;;;5054665;28;20188;-85
2022/04/17 12:56:07;;;;;;;5.55;4.07;;;18.30;30.00;;;;;;5054670;28;20183;-85
2022/04/17 12:58:50;;;;;;;3.53;3.22;;;18.40;29.90;;;;;;5056094;28;20292;-85
2022/04/17 13:01:22;;;;;;;5.05;3.72;;;18.40;29.90;;;;;;5055571;28;20173;-85
2022/04/17 13:03:48;;;;;;;5.40;3.53;;;18.40;30.00;;;;;;5054808;28;20177;-85
2022/04/17 13:06:22;;;;;;;5.30;3.70;;;18.40;30.00;;;;;;5055742;28;20164;-85
2022/04/17 13:09:12;;;;;;;7.18;3.50;;;18.60;30.00;;;;;;5055293;28;20192;-85